createdAt,value
2018-01-06T00:01:10.134Z,9.85
2018-01-06T00:03:37.732Z,9.80
2018-01-06T00:06:06.075Z,12.73
2018-01-06T00:08:33.745Z,10.02
2018-01-06T00:11:01.303Z,13.07
2018-01-06T00:13:29.271Z,12.70
2018-01-06T00:15:57.466Z,13.88
2018-01-06T00:18:25.133Z,10.00
2018-01-06T00:20:53.234Z,13.20
2018-01-06T00:23:20.761Z,10.52
2018-01-06T00:25:49.313Z,8.57
2018-01-06T00:28:16.925Z,10.63
2018-01-06T00:30:45.214Z,9.30
2018-01-06T00:33:13.577Z,9.73
2018-01-06T00:35:41.196Z,7.72
2018-01-06T00:38:08.837Z,9.02
2018-01-06T00:43:10.280Z,10.43
2018-01-06T00:45:38.873Z,14.50
2018-01-06T00:48:06.459Z,11.30
2018-01-06T00:50:34.005Z,11.95
2018-01-06T00:53:01.626Z,9.13
2018-01-06T00:55:30.033Z,14.20
2018-01-06T00:57:57.577Z,9.02
2018-01-06T01:00:25.859Z,9.48
2018-01-06T01:02:54.195Z,8.88
2018-01-06T01:05:21.842Z,8.80
2018-01-06T01:07:49.487Z,14.38
2018-01-06T01:10:17.051Z,8.15
2018-01-06T01:12:44.592Z,12.50
2018-01-06T01:15:12.192Z,8.88
2018-01-06T01:17:39.766Z,12.50
2018-01-06T01:20:07.340Z,6.82
2018-01-06T01:22:34.850Z,20.65
2018-01-06T01:25:03.408Z,9.75
2018-01-06T01:27:31.146Z,8.00
2018-01-06T01:29:58.672Z,18.45
2018-01-06T01:32:27.038Z,15.30
2018-01-06T01:34:54.662Z,11.12
2018-01-06T01:37:22.249Z,15.07
2018-01-06T01:39:49.866Z,11.18
2018-01-06T01:42:18.220Z,13.60
2018-01-06T01:44:45.792Z,14.02
2018-01-06T01:47:13.357Z,13.60
2018-01-06T01:49:40.916Z,9.52
2018-01-06T01:52:08.476Z,10.48
2018-01-06T01:54:36.049Z,10.60
2018-01-06T01:57:04.357Z,10.43
2018-01-06T01:59:31.966Z,8.10
2018-01-06T02:02:00.300Z,16.33
2018-01-06T02:04:27.842Z,18.15
2018-01-06T02:06:55.361Z,8.55
2018-01-06T02:09:23.049Z,8.93
2018-01-06T02:11:52.789Z,12.10
2018-01-06T02:14:20.331Z,11.70
2018-01-06T02:16:47.905Z,6.50
2018-01-06T02:19:15.448Z,13.73
2018-01-06T02:21:43.099Z,7.03
2018-01-06T02:24:11.464Z,11.07
2018-01-06T02:26:39.004Z,10.00
2018-01-06T02:29:06.567Z,10.20
2018-01-06T02:31:34.233Z,11.70
2018-01-06T02:34:02.519Z,20.65
2018-01-06T02:36:30.123Z,12.05
2018-01-06T02:38:57.691Z,10.40
2018-01-06T02:41:25.253Z,5.40
2018-01-06T02:43:52.817Z,15.43
2018-01-06T02:46:20.395Z,7.40
2018-01-06T02:48:47.916Z,12.65
2018-01-06T02:51:15.530Z,9.15
2018-01-06T02:53:43.099Z,12.05
2018-01-06T02:56:10.696Z,12.82
2018-01-06T02:58:38.265Z,11.48
2018-01-06T03:01:05.842Z,9.18
2018-01-06T03:03:33.395Z,8.25
2018-01-06T03:06:01.051Z,16.70
2018-01-06T03:08:28.883Z,16.50
2018-01-06T03:10:57.439Z,7.37
2018-01-06T03:13:25.913Z,16.10
2018-01-06T03:15:53.550Z,9.85
2018-01-06T03:18:21.116Z,11.50
2018-01-06T03:20:48.727Z,23.50
2018-01-06T03:23:17.126Z,13.65
2018-01-06T03:25:44.887Z,13.35
2018-01-06T03:28:12.504Z,20.75
2018-01-06T03:30:41.125Z,20.15
2018-01-06T03:33:09.424Z,14.18
2018-01-06T03:35:36.953Z,8.48
2018-01-06T03:38:05.266Z,8.55
2018-01-06T03:40:32.817Z,9.70
2018-01-06T03:43:00.467Z,12.00
2018-01-06T03:45:28.065Z,10.75
2018-01-06T03:47:55.681Z,11.77
2018-01-06T03:50:23.241Z,8.48
2018-01-06T03:52:51.589Z,15.38
2018-01-06T03:55:19.162Z,8.63
2018-01-06T03:57:46.758Z,9.05
2018-01-06T04:00:14.319Z,6.45
2018-01-06T04:02:41.965Z,9.60
2018-01-06T04:05:10.306Z,14.23
2018-01-06T04:07:37.904Z,12.15
2018-01-06T04:10:05.483Z,15.32
2018-01-06T04:12:33.096Z,11.30
2018-01-06T04:15:00.685Z,9.93
2018-01-06T04:17:29.026Z,11.73
2018-01-06T04:19:56.625Z,24.48
2018-01-06T04:22:24.250Z,17.80
2018-01-06T04:24:51.844Z,21.45
2018-01-06T04:27:20.187Z,17.08
2018-01-06T04:29:47.854Z,15.27
2018-01-06T04:32:15.454Z,9.65
2018-01-06T04:34:43.030Z,11.05
2018-01-06T04:37:10.663Z,9.90
2018-01-06T04:39:38.285Z,13.50
2018-01-06T04:42:06.669Z,12.13
2018-01-06T04:44:34.990Z,14.55
2018-01-06T04:47:02.690Z,15.88
2018-01-06T04:49:30.248Z,13.75
2018-01-06T04:51:57.826Z,19.37
2018-01-06T04:54:26.170Z,16.20
2018-01-06T04:56:53.816Z,16.02
2018-01-06T04:59:21.398Z,27.55
2018-01-06T05:01:48.978Z,20.05
2018-01-06T05:04:16.937Z,9.18
2018-01-06T05:06:45.304Z,8.30
2018-01-06T05:09:12.908Z,12.50
2018-01-06T05:11:40.478Z,16.05
2018-01-06T05:14:08.027Z,11.15
2018-01-06T05:16:35.603Z,14.45
2018-01-06T05:19:03.183Z,13.98
2018-01-06T05:21:30.749Z,18.70
2018-01-06T05:23:58.321Z,10.48
2018-01-06T05:26:26.668Z,20.60
2018-01-06T05:28:54.305Z,18.12
2018-01-06T05:31:22.722Z,10.02
2018-01-06T05:33:50.311Z,17.65
2018-01-06T05:36:18.724Z,12.30
2018-01-06T05:38:47.108Z,7.50
2018-01-06T05:41:14.668Z,8.27
2018-01-06T05:43:42.361Z,13.27
2018-01-06T05:46:09.913Z,6.80
2018-01-06T05:48:37.445Z,15.07
2018-01-06T05:51:05.779Z,11.30
2018-01-06T05:53:33.332Z,12.35
2018-01-06T05:56:01.446Z,12.75
2018-01-06T05:58:29.815Z,12.10
2018-01-06T06:00:58.985Z,7.12
2018-01-06T06:03:26.546Z,12.15
2018-01-06T06:05:54.173Z,11.93
2018-01-06T06:08:21.834Z,8.32
2018-01-06T06:10:49.423Z,13.65
2018-01-06T06:13:16.979Z,14.10
2018-01-06T06:15:44.599Z,9.88
2018-01-06T06:18:12.196Z,13.35
2018-01-06T06:20:39.760Z,8.43
2018-01-06T06:23:07.560Z,9.80
2018-01-06T06:25:35.215Z,7.82
2018-01-06T06:28:02.801Z,13.62
2018-01-06T06:30:31.433Z,11.18
2018-01-06T06:32:59.027Z,16.17
2018-01-06T06:35:26.772Z,11.73
2018-01-06T06:37:55.197Z,11.05
2018-01-06T06:40:22.768Z,14.50
2018-01-06T06:42:50.404Z,12.00
2018-01-06T06:45:17.996Z,27.98
2018-01-06T06:47:45.614Z,9.98
2018-01-06T06:50:13.173Z,10.30
2018-01-06T06:52:40.779Z,10.43
2018-01-06T06:55:08.395Z,9.55
2018-01-06T06:57:36.067Z,9.25
2018-01-06T07:00:04.425Z,9.40
2018-01-06T07:02:31.957Z,18.33
2018-01-06T07:04:59.827Z,8.90
2018-01-06T07:07:27.376Z,10.73
2018-01-06T07:09:54.969Z,9.75
2018-01-06T07:12:22.540Z,10.35
2018-01-06T07:14:50.154Z,11.73
2018-01-06T07:17:17.767Z,14.85
2018-01-06T07:19:45.523Z,7.80
2018-01-06T07:22:13.126Z,9.70
2018-01-06T07:24:41.501Z,8.00
2018-01-06T07:27:09.965Z,13.23
2018-01-06T07:29:37.650Z,14.57
2018-01-06T07:32:06.014Z,17.27
2018-01-06T07:34:33.601Z,16.50
2018-01-06T07:37:01.235Z,12.50
2018-01-06T07:39:28.817Z,13.68
2018-01-06T07:41:56.411Z,13.18
2018-01-06T07:44:24.108Z,17.90
2018-01-06T07:46:51.740Z,18.33
2018-01-06T07:49:20.443Z,18.52
2018-01-06T07:51:48.943Z,16.40
2018-01-06T07:54:16.658Z,19.27
2018-01-06T07:56:44.403Z,15.40
2018-01-06T07:59:12.037Z,24.70
2018-01-06T08:01:39.670Z,24.45
2018-01-06T08:04:07.293Z,19.12
2018-01-06T08:06:35.218Z,15.43
2018-01-06T08:09:04.051Z,16.30
2018-01-06T08:11:32.558Z,17.00
2018-01-06T08:14:00.125Z,27.87
2018-01-06T08:16:27.719Z,24.77
2018-01-06T08:18:55.275Z,18.95
2018-01-06T08:21:22.926Z,21.05
2018-01-06T08:23:51.298Z,24.02
2018-01-06T08:26:19.705Z,19.65
2018-01-06T08:28:47.417Z,19.75
2018-01-06T08:31:14.977Z,21.73
2018-01-06T08:33:42.756Z,32.80
2018-01-06T08:36:11.831Z,18.95
2018-01-06T08:38:39.417Z,13.45
2018-01-06T08:41:06.995Z,15.63
2018-01-06T08:43:34.674Z,16.05
2018-01-06T08:46:02.390Z,17.15
2018-01-06T08:48:30.205Z,11.50
2018-01-06T08:50:57.775Z,11.02
2018-01-06T08:53:26.113Z,14.95
2018-01-06T08:55:53.743Z,10.13
2018-01-06T08:58:21.300Z,12.07
2018-01-06T09:00:49.625Z,15.05
2018-01-06T09:03:17.252Z,21.42
2018-01-06T09:05:44.795Z,21.85
2018-01-06T09:08:12.465Z,13.35
2018-01-06T09:10:40.043Z,13.75
2018-01-06T09:13:08.064Z,16.67
2018-01-06T09:15:35.860Z,14.85
2018-01-06T09:18:04.028Z,10.98
2018-01-06T09:20:31.610Z,17.77
2018-01-06T09:22:59.182Z,14.43
2018-01-06T09:25:26.794Z,17.00
2018-01-06T09:27:55.180Z,14.48
2018-01-06T09:30:23.537Z,14.27
2018-01-06T09:32:51.919Z,15.90
2018-01-06T09:35:19.568Z,20.30
2018-01-06T09:37:47.236Z,13.77
2018-01-06T09:40:15.714Z,15.00
2018-01-06T09:42:43.253Z,9.05
2018-01-06T09:45:10.862Z,11.23
2018-01-06T09:47:38.427Z,15.10
2018-01-06T09:50:06.042Z,16.55
2018-01-06T09:52:33.681Z,22.17
2018-01-06T09:55:01.229Z,15.07
2018-01-06T09:57:28.821Z,19.95
2018-01-06T09:59:56.491Z,24.90
2018-01-06T10:02:24.074Z,13.23
2018-01-06T10:04:56.896Z,22.02
2018-01-06T10:07:24.587Z,21.98
2018-01-06T10:09:52.966Z,19.87
2018-01-06T10:12:20.538Z,19.62
2018-01-06T10:14:48.106Z,12.23
2018-01-06T10:17:15.669Z,15.95
2018-01-06T10:19:44.023Z,19.37
2018-01-06T10:22:11.681Z,22.80
2018-01-06T10:24:39.459Z,16.95
2018-01-06T10:27:07.058Z,16.08
2018-01-06T10:29:34.715Z,19.15
2018-01-06T10:32:02.318Z,13.77
2018-01-06T10:34:29.902Z,22.62
2018-01-06T10:36:57.943Z,12.70
2018-01-06T10:39:25.528Z,12.80
2018-01-06T10:41:53.141Z,13.85
2018-01-06T10:44:20.825Z,14.02
2018-01-06T10:46:48.373Z,16.27
2018-01-06T10:49:15.896Z,13.52
2018-01-06T10:51:43.495Z,11.40
2018-01-06T10:54:11.031Z,18.15
2018-01-06T10:56:38.778Z,21.60
2018-01-06T10:59:06.353Z,13.90
2018-01-06T11:01:39.424Z,19.15
2018-01-06T11:04:07.049Z,26.42
2018-01-06T11:06:34.786Z,17.62
2018-01-06T11:09:02.456Z,21.83
2018-01-06T11:11:30.185Z,11.70
2018-01-06T11:13:57.785Z,26.08
2018-01-06T11:16:25.405Z,14.32
2018-01-06T11:18:53.769Z,11.32
2018-01-06T11:21:22.119Z,10.00
2018-01-06T11:23:49.828Z,13.55
2018-01-06T11:26:17.405Z,9.48
2018-01-06T11:28:45.016Z,8.20
2018-01-06T11:31:12.563Z,9.98
2018-01-06T11:33:40.146Z,16.08
2018-01-06T11:36:08.649Z,10.27
2018-01-06T11:38:36.229Z,7.82
2018-01-06T11:41:03.909Z,13.45
2018-01-06T11:43:32.254Z,10.25
2018-01-06T11:45:59.983Z,14.15
2018-01-06T11:48:27.629Z,12.57
2018-01-06T11:50:55.487Z,11.25
2018-01-06T11:53:23.220Z,16.65
2018-01-06T11:55:51.710Z,16.12
2018-01-06T11:58:19.415Z,14.32
2018-01-06T12:00:47.444Z,10.98
2018-01-06T12:03:15.187Z,17.48
2018-01-06T12:05:44.032Z,15.55
2018-01-06T12:08:11.626Z,8.02
2018-01-06T12:10:39.270Z,12.20
2018-01-06T12:13:06.841Z,13.13
2018-01-06T12:15:44.433Z,13.80
2018-01-06T12:18:12.026Z,11.75
2018-01-06T12:20:39.600Z,24.42
2018-01-06T12:23:08.003Z,17.90
2018-01-06T12:25:35.593Z,18.95
2018-01-06T12:28:03.217Z,17.27
2018-01-06T12:30:31.669Z,9.85
2018-01-06T12:32:59.219Z,14.98
2018-01-06T12:35:26.857Z,19.10
2018-01-06T12:37:54.479Z,18.48
2018-01-06T12:40:22.120Z,11.57
2018-01-06T12:42:50.741Z,18.60
2018-01-06T12:45:18.372Z,17.12
2018-01-06T12:47:45.985Z,12.70
2018-01-06T12:50:14.436Z,12.85
2018-01-06T12:52:42.004Z,15.38
2018-01-06T12:55:13.236Z,22.77
2018-01-06T12:57:40.860Z,22.27
2018-01-06T13:00:08.502Z,16.02
2018-01-06T13:02:36.086Z,15.68
2018-01-06T13:05:03.753Z,20.40
2018-01-06T13:07:32.120Z,13.77
2018-01-06T13:10:00.549Z,16.27
2018-01-06T13:12:28.096Z,17.85
2018-01-06T13:14:55.706Z,15.63
2018-01-06T13:17:23.323Z,17.05
2018-01-06T13:19:50.995Z,20.62
2018-01-06T13:22:18.650Z,15.02
2018-01-06T13:24:46.370Z,19.42
2018-01-06T13:27:13.970Z,15.70
2018-01-06T13:29:42.297Z,12.27
2018-01-06T13:32:09.884Z,14.98
2018-01-06T13:34:38.234Z,22.98
2018-01-06T13:37:05.835Z,18.10
2018-01-06T13:39:33.440Z,22.33
2018-01-06T13:42:01.873Z,24.50
2018-01-06T13:44:29.416Z,18.37
2018-01-06T13:46:57.014Z,23.65
2018-01-06T13:49:25.553Z,16.87
2018-01-06T13:51:53.099Z,18.58
2018-01-06T13:54:20.697Z,18.55
2018-01-06T13:56:48.254Z,19.25
2018-01-06T13:59:16.638Z,18.05
2018-01-06T14:01:44.251Z,21.42
2018-01-06T14:04:11.832Z,18.40
2018-01-06T14:06:39.383Z,22.80
2018-01-06T14:09:06.975Z,18.02
2018-01-06T14:11:34.692Z,20.23
2018-01-06T14:14:03.642Z,22.98
2018-01-06T14:16:31.962Z,20.25
2018-01-06T14:18:59.527Z,26.37
2018-01-06T14:21:27.088Z,15.35
2018-01-06T14:23:54.666Z,25.00
2018-01-06T14:26:23.986Z,21.90
2018-01-06T14:28:51.642Z,29.45
2018-01-06T14:31:20.297Z,17.00
2018-01-06T14:33:47.850Z,27.87
2018-01-06T14:36:15.443Z,21.52
2018-01-06T14:38:43.017Z,15.45
2018-01-06T14:41:10.651Z,23.02
2018-01-06T14:43:38.227Z,15.18
2018-01-06T14:46:05.819Z,20.75
2018-01-06T14:48:33.402Z,19.33
2018-01-06T14:51:01.032Z,19.45
2018-01-06T14:53:28.575Z,14.07
2018-01-06T14:55:56.195Z,23.20
2018-01-06T14:58:23.875Z,17.73
2018-01-06T15:00:52.086Z,19.87
2018-01-06T15:03:19.817Z,19.87
2018-01-06T15:05:47.457Z,19.30
2018-01-06T15:08:15.113Z,20.50
2018-01-06T15:10:42.760Z,21.67
2018-01-06T15:13:11.152Z,23.40
2018-01-06T15:15:38.711Z,21.00
2018-01-06T15:18:06.295Z,27.15
2018-01-06T15:20:34.041Z,22.23
2018-01-06T15:23:02.645Z,26.52
2018-01-06T15:25:30.248Z,31.98
2018-01-06T15:27:57.821Z,23.40
2018-01-06T15:30:25.582Z,25.40
2018-01-06T15:32:53.261Z,33.15
2018-01-06T15:35:21.726Z,18.10
2018-01-06T15:37:50.300Z,30.73
2018-01-06T15:40:17.919Z,30.98
2018-01-06T15:42:45.490Z,37.88
2018-01-06T15:45:13.144Z,24.23
2018-01-06T15:47:40.957Z,22.42
2018-01-06T15:50:08.545Z,20.95
2018-01-06T15:52:36.126Z,25.27
2018-01-06T15:55:03.864Z,25.08
2018-01-06T15:57:31.478Z,27.90
2018-01-06T15:59:59.141Z,27.35
2018-01-06T16:02:27.563Z,26.75
2018-01-06T16:04:55.140Z,37.67
2018-01-06T16:07:22.788Z,22.10
2018-01-06T16:09:50.415Z,27.83
2018-01-06T16:12:18.009Z,20.20
2018-01-06T16:14:45.617Z,27.05
2018-01-06T16:17:14.036Z,23.50
2018-01-06T16:19:41.708Z,29.12
2018-01-06T16:22:09.454Z,26.05
2018-01-06T16:24:37.048Z,25.27
2018-01-06T16:27:04.666Z,30.88
2018-01-06T16:29:32.229Z,33.08
2018-01-06T16:32:00.402Z,26.15
2018-01-06T16:34:28.020Z,27.77
2018-01-06T16:36:55.615Z,31.05
2018-01-06T16:39:23.943Z,24.30
2018-01-06T16:41:51.654Z,37.63
2018-01-06T16:44:20.011Z,24.80
2018-01-06T16:46:48.330Z,26.17
2018-01-06T16:49:15.933Z,33.83
2018-01-06T16:51:43.514Z,27.58
2018-01-06T16:54:11.117Z,35.28
2018-01-06T16:56:38.887Z,29.58
2018-01-06T16:59:06.683Z,33.58
2018-01-06T17:01:34.337Z,35.78
2018-01-06T17:04:01.894Z,28.02
2018-01-06T17:06:30.387Z,38.17
2018-01-06T17:08:57.964Z,39.80
2018-01-06T17:11:25.561Z,31.52
2018-01-06T17:13:53.207Z,42.47
2018-01-06T17:16:20.887Z,35.25
2018-01-06T17:18:48.498Z,39.42
2018-01-06T17:21:16.152Z,38.83
2018-01-06T17:23:44.673Z,39.78
2018-01-06T17:26:12.806Z,43.75
2018-01-06T17:28:40.557Z,37.50
2018-01-06T17:31:08.290Z,46.92
2018-01-06T17:33:35.877Z,46.83
2018-01-06T17:36:03.530Z,42.65
2018-01-06T17:38:31.121Z,42.30
2018-01-06T17:40:59.469Z,40.20
2018-01-06T17:43:27.103Z,40.92
2018-01-06T17:45:54.738Z,39.95
2018-01-06T17:48:22.347Z,48.10
2018-01-06T17:50:49.915Z,42.97
2018-01-06T17:53:17.529Z,42.58
2018-01-06T17:55:45.122Z,49.00
2018-01-06T17:58:12.696Z,48.58
2018-01-06T18:00:40.269Z,51.53
2018-01-06T18:03:07.921Z,43.03
2018-01-06T18:05:35.636Z,51.50
2018-01-06T18:10:54.530Z,46.42
2018-01-06T18:13:22.188Z,45.95
2018-01-06T18:15:50.524Z,42.75
2018-01-06T18:18:35.809Z,43.45
2018-01-06T18:21:03.707Z,55.30
2018-01-06T18:23:32.143Z,41.53
2018-01-06T18:26:02.020Z,44.58
2018-01-06T18:28:29.621Z,44.65
2018-01-06T18:30:58.838Z,44.13
2018-01-06T18:33:27.232Z,46.28
2018-01-06T18:35:54.939Z,50.30
2018-01-06T18:38:22.594Z,46.95
2018-01-06T18:40:50.413Z,45.47
2018-01-06T18:43:18.859Z,52.30
2018-01-06T18:45:46.587Z,41.00
2018-01-06T18:48:14.152Z,51.13
2018-01-06T18:50:41.919Z,45.20
2018-01-06T18:53:09.585Z,44.55
2018-01-06T18:55:37.170Z,51.45
2018-01-06T18:58:04.966Z,42.33
2018-01-06T19:00:32.725Z,47.75
2018-01-06T19:03:00.493Z,54.05
2018-01-06T19:05:28.046Z,44.53
2018-01-06T19:07:56.376Z,47.70
2018-01-06T19:10:23.982Z,47.30
2018-01-06T19:12:52.515Z,45.15
2018-01-06T19:15:20.137Z,41.65
2018-01-06T19:17:48.537Z,47.05
2018-01-06T19:20:16.131Z,48.63
2018-01-06T19:22:44.470Z,47.42
2018-01-06T19:25:12.123Z,46.47
2018-01-06T19:27:39.693Z,40.97
2018-01-06T19:30:07.306Z,39.58
2018-01-06T19:32:34.886Z,45.45
2018-01-06T19:35:03.260Z,43.95
2018-01-06T19:37:31.607Z,46.37
2018-01-06T19:39:59.196Z,50.08
2018-01-06T19:42:26.738Z,39.33
2018-01-06T19:44:54.318Z,38.95
2018-01-06T19:47:21.883Z,39.70
2018-01-06T19:49:50.240Z,30.20
2018-01-06T19:52:19.910Z,21.23
2018-01-06T19:54:48.416Z,19.25
2018-01-06T19:57:15.957Z,21.83
2018-01-06T19:59:43.489Z,20.55
2018-01-06T20:02:11.099Z,21.25
2018-01-06T20:04:40.501Z,22.30
2018-01-06T20:07:08.146Z,14.20
2018-01-06T20:09:35.748Z,17.27
2018-01-06T20:12:04.096Z,14.52
2018-01-06T20:14:31.625Z,17.05
2018-01-06T20:16:59.242Z,17.02
2018-01-06T20:19:26.863Z,19.73
2018-01-06T20:21:55.118Z,17.87
2018-01-06T20:24:22.693Z,19.33
2018-01-06T20:26:50.260Z,24.33
2018-01-06T20:29:17.797Z,29.05
2018-01-06T20:31:45.565Z,23.85
2018-01-06T20:34:13.154Z,19.17
2018-01-06T20:36:40.741Z,22.98
2018-01-06T20:39:08.351Z,23.50
2018-01-06T20:41:36.662Z,20.12
2018-01-06T20:44:04.207Z,26.62
2018-01-06T20:46:31.795Z,22.17
2018-01-06T20:48:59.395Z,26.77
2018-01-06T20:51:27.048Z,20.40
2018-01-06T20:53:55.391Z,22.48
2018-01-06T20:56:22.931Z,22.77
2018-01-06T20:58:50.541Z,21.70
2018-01-06T21:01:18.824Z,24.12
2018-01-06T21:03:46.444Z,23.27
2018-01-06T21:06:14.220Z,24.20
2018-01-06T21:08:41.802Z,23.45
2018-01-06T21:11:09.416Z,24.55
2018-01-06T21:13:37.004Z,21.83
2018-01-06T21:16:04.607Z,26.62
2018-01-06T21:18:34.110Z,24.45
2018-01-06T21:21:01.700Z,21.27
2018-01-06T21:23:29.428Z,21.50
2018-01-06T21:25:57.288Z,19.92
2018-01-06T21:28:25.661Z,19.98
2018-01-06T21:30:54.069Z,21.50
2018-01-06T21:33:21.664Z,24.50
2018-01-06T21:35:49.316Z,21.87
2018-01-06T21:38:17.537Z,24.80
2018-01-06T21:40:45.248Z,17.52
2018-01-06T21:43:12.869Z,19.15
2018-01-06T21:45:40.501Z,14.48
2018-01-06T21:48:08.041Z,16.33
2018-01-06T21:50:35.638Z,14.95
2018-01-06T21:53:03.977Z,14.68
2018-01-06T21:55:31.597Z,15.73
2018-01-06T21:57:59.232Z,11.70
2018-01-06T22:00:26.955Z,14.30
2018-01-06T22:02:54.514Z,15.80
2018-01-06T22:05:22.120Z,11.27
2018-01-06T22:07:49.695Z,10.60
2018-01-06T22:10:17.345Z,12.48
2018-01-06T22:12:45.700Z,11.30
2018-01-06T22:15:13.262Z,10.55
2018-01-06T22:17:40.937Z,13.88
2018-01-06T22:20:08.513Z,8.40
2018-01-06T22:22:36.059Z,8.57
2018-01-06T22:25:03.616Z,10.60
2018-01-06T22:27:31.190Z,10.30
2018-01-06T22:29:58.745Z,9.02
2018-01-06T22:32:26.319Z,11.20
2018-01-06T22:34:54.053Z,11.18
2018-01-06T22:37:21.662Z,9.65
2018-01-06T22:39:49.232Z,11.00
2018-01-06T22:42:16.820Z,11.55
2018-01-06T22:44:45.188Z,11.40
2018-01-06T22:47:12.793Z,10.30
2018-01-06T22:49:40.333Z,10.60
2018-01-06T22:52:08.775Z,8.95
2018-01-06T22:54:37.562Z,11.07
2018-01-06T22:57:05.128Z,11.98
2018-01-06T22:59:32.680Z,11.07
2018-01-06T23:02:00.242Z,11.60
2018-01-06T23:04:27.798Z,11.20
2018-01-06T23:06:58.519Z,11.05
2018-01-06T23:09:26.117Z,13.75
2018-01-06T23:11:53.769Z,12.75
2018-01-06T23:14:21.337Z,12.40
2018-01-06T23:16:49.726Z,15.25
2018-01-06T23:19:17.264Z,12.82
2018-01-06T23:21:44.981Z,12.37
2018-01-06T23:24:12.593Z,12.23
2018-01-06T23:26:41.254Z,13.40
2018-01-06T23:29:08.805Z,14.70
2018-01-06T23:31:36.350Z,16.25
2018-01-06T23:34:03.981Z,17.15
2018-01-06T23:36:31.670Z,14.20
2018-01-06T23:38:59.268Z,15.27
2018-01-06T23:41:26.826Z,15.48
2018-01-06T23:43:54.470Z,15.88
2018-01-06T23:46:22.793Z,18.23
2018-01-06T23:48:50.411Z,21.58
2018-01-06T23:51:17.954Z,18.27
2018-01-06T23:53:45.677Z,17.58
2018-01-06T23:56:13.276Z,24.37
2018-01-06T23:58:41.000Z,16.90
